createdAt,value
2022-09-26T00:02:58.733Z,2.73
2022-09-26T00:07:42.237Z,2.33
2022-09-26T00:12:27.096Z,2.30
2022-09-26T00:17:12.001Z,2.77
2022-09-26T00:21:55.496Z,2.30
2022-09-26T00:26:39.512Z,2.00
2022-09-26T00:31:26.927Z,2.30
2022-09-26T00:36:10.925Z,2.23
2022-09-26T00:40:54.376Z,1.87
2022-09-26T00:45:37.901Z,1.67
2022-09-26T00:50:26.493Z,1.77
2022-09-26T00:55:14.358Z,1.70
2022-09-26T01:00:01.644Z,1.50
2022-09-26T01:04:46.966Z,1.80
2022-09-26T01:09:33.350Z,1.73
2022-09-26T01:14:17.063Z,2.07
2022-09-26T01:19:01.180Z,2.00
2022-09-26T01:24:13.789Z,1.80
2022-09-26T01:29:19.394Z,1.93
2022-09-26T01:34:14.375Z,1.90
2022-09-26T01:39:09.532Z,2.03
2022-09-26T01:44:01.191Z,2.27
2022-09-26T01:48:48.735Z,1.67
2022-09-26T01:53:41.498Z,1.80
2022-09-26T01:58:29.535Z,1.60
2022-09-26T02:03:16.871Z,1.93
2022-09-26T02:08:04.910Z,2.03
2022-09-26T02:12:56.216Z,2.00
2022-09-26T02:17:43.077Z,1.83
2022-09-26T02:22:29.184Z,1.60
2022-09-26T02:27:12.538Z,1.50
2022-09-26T02:32:03.203Z,1.60
2022-09-26T02:36:46.863Z,2.10
2022-09-26T02:41:38.752Z,1.60
2022-09-26T02:46:51.585Z,1.47
2022-09-26T02:51:56.488Z,1.50
2022-09-26T02:56:50.263Z,1.47
2022-09-26T03:01:42.304Z,1.60
2022-09-26T03:06:29.563Z,2.33
2022-09-26T03:11:18.136Z,2.53
2022-09-26T03:16:03.076Z,3.20
2022-09-26T03:20:46.970Z,2.97
2022-09-26T03:25:31.172Z,3.23
2022-09-26T03:30:17.667Z,2.30
2022-09-26T03:35:01.079Z,3.97
2022-09-26T03:39:44.740Z,4.27
2022-09-26T03:44:28.185Z,5.30
2022-09-26T03:49:13.653Z,5.27
2022-09-26T03:53:57.707Z,4.40
2022-09-26T03:58:41.158Z,5.20
2022-09-26T04:03:24.825Z,7.03
2022-09-26T04:08:10.300Z,5.67
2022-09-26T04:12:53.662Z,5.70
2022-09-26T04:17:37.076Z,5.43
2022-09-26T04:22:20.445Z,5.37
2022-09-26T04:27:06.728Z,5.13
2022-09-26T04:31:51.558Z,5.90
2022-09-26T04:36:34.986Z,6.13
2022-09-26T04:41:20.069Z,6.07
2022-09-26T04:46:09.304Z,5.80
2022-09-26T04:50:52.890Z,5.90
2022-09-26T04:55:36.327Z,5.63
2022-09-26T05:00:19.965Z,3.60
2022-09-26T05:05:06.045Z,3.37
2022-09-26T05:09:49.432Z,3.30
2022-09-26T05:14:35.965Z,4.60
2022-09-26T05:19:20.692Z,4.13
2022-09-26T05:24:22.831Z,3.40
2022-09-26T05:29:08.934Z,2.60
2022-09-26T05:33:53.998Z,3.40
2022-09-26T05:38:37.379Z,4.90
2022-09-26T05:43:22.930Z,5.57
2022-09-26T05:48:07.243Z,4.90
2022-09-26T05:52:50.755Z,5.13
2022-09-26T05:57:34.223Z,3.80
2022-09-26T06:02:21.008Z,4.07
2022-09-26T06:07:04.827Z,5.03
2022-09-26T06:11:48.180Z,4.63
2022-09-26T06:16:31.648Z,4.43
2022-09-26T06:21:18.551Z,4.83
2022-09-26T06:26:02.412Z,3.73
2022-09-26T06:30:45.943Z,3.80
2022-09-26T06:35:29.365Z,4.10
2022-09-26T06:40:14.374Z,4.40
2022-09-26T06:44:57.853Z,3.73
2022-09-26T06:49:41.301Z,4.47
2022-09-26T06:54:24.843Z,3.63
2022-09-26T06:59:09.879Z,3.50
2022-09-26T07:03:54.421Z,4.30
2022-09-26T07:09:01.039Z,4.10
2022-09-26T07:13:41.898Z,3.47
2022-09-26T07:18:27.265Z,4.00
2022-09-26T07:23:12.651Z,5.00
2022-09-26T07:27:56.094Z,4.40
2022-09-26T07:32:39.551Z,4.03
2022-09-26T07:37:24.410Z,3.00
2022-09-26T07:42:08.838Z,3.17
2022-09-26T07:47:09.427Z,2.17
2022-09-26T07:51:56.133Z,1.60
2022-09-26T07:56:42.166Z,1.43
2022-09-26T08:01:26.141Z,1.20
2022-09-26T08:06:10.587Z,2.00
2022-09-26T08:10:54.028Z,1.90
2022-09-26T08:15:38.969Z,1.50
2022-09-26T08:20:22.511Z,1.47
2022-09-26T08:25:07.423Z,1.60
2022-09-26T08:29:51.243Z,1.57
2022-09-26T08:34:36.806Z,1.30
2022-09-26T08:39:20.173Z,1.30
2022-09-26T08:44:17.138Z,1.27
2022-09-26T08:49:39.229Z,0.97
2022-09-26T08:54:35.348Z,0.90
2022-09-26T08:59:26.999Z,1.00
2022-09-26T09:04:16.047Z,1.00
2022-09-26T09:09:00.163Z,1.00
2022-09-26T09:13:58.292Z,0.90
2022-09-26T09:18:49.097Z,0.90
2022-09-26T09:23:47.938Z,0.90
2022-09-26T09:28:44.036Z,1.00
2022-09-26T09:33:33.420Z,1.03
2022-09-26T09:38:19.392Z,1.50
2022-09-26T09:43:06.492Z,6.50
2022-09-26T09:47:49.934Z,1.57
2022-09-26T09:52:57.353Z,1.40
2022-09-26T09:57:57.864Z,1.50
2022-09-26T10:02:48.448Z,2.00
2022-09-26T10:07:31.996Z,1.50
2022-09-26T10:12:20.246Z,2.53
2022-09-26T10:17:19.716Z,3.43
2022-09-26T10:22:03.184Z,8.43
2022-09-26T10:26:47.394Z,1.87
2022-09-26T10:31:42.217Z,7.30
2022-09-26T10:36:31.912Z,1.70
2022-09-26T10:41:25.239Z,1.37
2022-09-26T10:46:12.212Z,1.77
2022-09-26T10:51:02.038Z,1.27
2022-09-26T10:55:49.766Z,1.27
2022-09-26T11:00:40.264Z,0.90
2022-09-26T11:05:43.495Z,1.10
2022-09-26T11:10:34.255Z,1.00
2022-09-26T11:15:17.715Z,1.60
2022-09-26T11:20:04.123Z,1.73
2022-09-26T11:24:52.904Z,1.95
2022-09-26T11:29:45.141Z,2.42
2022-09-26T11:34:32.513Z,2.42
2022-09-26T11:39:33.699Z,2.15
2022-09-26T11:44:38.252Z,2.13
2022-09-26T11:49:39.799Z,2.03
2022-09-26T11:54:51.555Z,2.30
2022-09-26T11:59:55.621Z,1.15
2022-09-26T12:05:05.934Z,1.20
2022-09-26T12:10:19.676Z,0.90
2022-09-26T12:15:15.104Z,0.90
2022-09-26T12:20:15.096Z,1.40
2022-09-26T12:25:24.335Z,0.93
2022-09-26T12:30:12.658Z,1.40
2022-09-26T12:35:15.005Z,1.08
2022-09-26T12:40:14.753Z,1.00
2022-09-26T12:45:35.460Z,0.85
2022-09-26T12:50:31.603Z,1.08
2022-09-26T12:55:24.530Z,0.88
2022-09-26T13:00:20.919Z,0.90
2022-09-26T13:05:28.004Z,0.80
2022-09-26T13:10:28.151Z,1.05
2022-09-26T13:15:24.406Z,0.90
2022-09-26T13:20:15.243Z,0.80
2022-09-26T13:25:08.132Z,0.90
2022-09-26T13:30:00.742Z,0.90
2022-09-26T13:34:48.010Z,0.73
2022-09-26T13:39:41.994Z,0.90
2022-09-26T13:44:40.761Z,0.93
2022-09-26T13:49:34.881Z,0.70
2022-09-26T13:54:27.199Z,1.00
2022-09-26T13:59:42.476Z,0.80
2022-09-26T14:04:36.138Z,0.90
2022-09-26T14:09:28.828Z,0.77
2022-09-26T14:14:39.889Z,1.02
2022-09-26T14:19:31.584Z,0.70
2022-09-26T14:24:47.368Z,0.80
2022-09-26T14:29:38.419Z,0.77
2022-09-26T14:34:24.382Z,0.80
2022-09-26T14:39:08.156Z,1.10
2022-09-26T14:43:53.574Z,0.80
2022-09-26T14:48:39.619Z,0.90
2022-09-26T14:53:34.574Z,0.90
2022-09-26T14:58:18.943Z,1.10
2022-09-26T15:03:07.494Z,0.90
2022-09-26T15:07:53.267Z,0.90
2022-09-26T15:12:42.773Z,0.80
2022-09-26T15:17:30.548Z,0.90
2022-09-26T15:22:19.719Z,1.10
2022-09-26T15:27:10.377Z,0.97
2022-09-26T15:31:56.362Z,0.50
2022-09-26T15:36:43.015Z,1.30
2022-09-26T15:41:45.268Z,1.10
2022-09-26T15:46:29.421Z,1.20
2022-09-26T15:51:19.632Z,1.30
2022-09-26T15:56:06.801Z,1.40
2022-09-26T16:00:54.292Z,1.40
2022-09-26T16:05:37.908Z,1.60
2022-09-26T16:10:25.378Z,2.20
2022-09-26T16:15:17.096Z,1.67
2022-09-26T16:20:06.375Z,1.40
2022-09-26T16:24:51.835Z,1.77
2022-09-26T16:29:38.486Z,1.43
2022-09-26T16:34:23.609Z,2.20
2022-09-26T16:39:20.477Z,2.10
2022-09-26T16:44:08.696Z,2.50
2022-09-26T16:48:56.147Z,1.90
2022-09-26T16:53:39.557Z,1.70
2022-09-26T16:58:25.984Z,1.80
2022-09-26T17:03:22.200Z,2.10
2022-09-26T17:08:06.394Z,2.13
2022-09-26T17:12:51.647Z,1.37
2022-09-26T17:17:36.774Z,1.80
2022-09-26T17:22:21.898Z,2.10
2022-09-26T17:27:08.865Z,2.10
2022-09-26T17:31:54.158Z,2.03
2022-09-26T17:36:39.344Z,2.80
2022-09-26T17:41:27.358Z,2.90
2022-09-26T17:46:15.370Z,2.90
2022-09-26T17:51:02.338Z,3.50
2022-09-26T17:55:47.345Z,3.27
2022-09-26T18:00:38.995Z,2.60
2022-09-26T18:05:25.567Z,2.57
2022-09-26T18:10:19.507Z,3.10
2022-09-26T18:15:05.479Z,2.70
2022-09-26T18:19:50.761Z,3.07
2022-09-26T18:24:35.236Z,3.23
2022-09-26T18:29:25.324Z,3.00
2022-09-26T18:34:16.446Z,3.73
2022-09-26T18:39:00.197Z,4.63
2022-09-26T18:43:44.204Z,3.70
2022-09-26T18:48:32.170Z,3.23
2022-09-26T18:53:20.077Z,2.13
2022-09-26T18:58:21.055Z,2.23
2022-09-26T19:03:05.152Z,2.07
2022-09-26T19:07:49.109Z,2.30
2022-09-26T19:12:39.153Z,1.93
2022-09-26T19:17:22.856Z,1.83
2022-09-26T19:22:10.556Z,2.07
2022-09-26T19:26:58.727Z,1.97
2022-09-26T19:31:44.412Z,1.97
2022-09-26T19:36:27.805Z,2.00
2022-09-26T19:41:11.452Z,1.50
2022-09-26T19:45:56.153Z,1.40
2022-09-26T19:50:42.807Z,1.37
2022-09-26T19:55:28.877Z,1.33
2022-09-26T20:00:13.907Z,1.37
2022-09-26T20:04:57.398Z,2.10
2022-09-26T20:09:42.455Z,1.50
2022-09-26T20:14:26.254Z,1.53
2022-09-26T20:19:17.630Z,1.20
2022-09-26T20:24:02.124Z,1.53
2022-09-26T20:28:47.009Z,1.00
2022-09-26T20:33:30.521Z,1.00
2022-09-26T20:38:19.760Z,1.00
2022-09-26T20:43:08.200Z,0.77
2022-09-26T20:47:53.002Z,1.00
2022-09-26T20:52:36.644Z,1.03
2022-09-26T20:57:22.491Z,1.20
2022-09-26T21:02:30.254Z,1.10
2022-09-26T21:07:17.399Z,0.90
2022-09-26T21:12:02.798Z,0.93
2022-09-26T21:16:51.588Z,1.30
2022-09-26T21:21:36.306Z,0.97
2022-09-26T21:26:23.059Z,1.13
2022-09-26T21:31:08.336Z,1.00
2022-09-26T21:35:53.061Z,1.00
2022-09-26T21:40:41.263Z,1.00
2022-09-26T21:45:27.920Z,0.60
2022-09-26T21:50:13.347Z,0.70
2022-09-26T21:55:00.264Z,0.60
2022-09-26T21:59:45.068Z,0.70
2022-09-26T22:04:30.104Z,0.90
2022-09-26T22:09:13.587Z,0.70
2022-09-26T22:13:57.025Z,0.50
2022-09-26T22:18:41.288Z,0.50
2022-09-26T22:23:26.227Z,0.60
2022-09-26T22:28:09.634Z,0.80
2022-09-26T22:32:53.061Z,0.60
2022-09-26T22:37:36.482Z,0.60
2022-09-26T22:42:21.263Z,0.47
2022-09-26T22:47:04.855Z,0.63
2022-09-26T22:51:48.338Z,0.60
2022-09-26T22:56:32.178Z,0.60
2022-09-26T23:01:19.660Z,0.60
2022-09-26T23:06:03.528Z,0.67
2022-09-26T23:10:50.310Z,0.50
2022-09-26T23:15:34.240Z,1.50
2022-09-26T23:20:19.130Z,1.23
2022-09-26T23:25:02.533Z,1.47
2022-09-26T23:29:45.940Z,1.40
2022-09-26T23:34:29.434Z,2.30
2022-09-26T23:39:14.461Z,2.30
2022-09-26T23:43:58.083Z,2.40
2022-09-26T23:48:41.726Z,2.20
2022-09-26T23:53:25.307Z,2.60
2022-09-26T23:58:10.701Z,2.70
